Time;durP1;ratioP1;P1;durP2;ratioP2;P2;SDS_P1;SDS_P2;PMS_P1;PMS_P2;Temp;Humidity;BMP_temperature;BMP_pressure;BME280_temperature;BME280_humidity;BME280_pressure;Samples;Min_cycle;Max_cycle;Signal;HPM_P1;HPM_P2
2022/11/02 00:01:41;;;;;;;9.93;2.40;;;;;;;11.30;100.00;101148.63;7388603;19;20393;-53
2022/11/02 00:04:11;;;;;;;11.50;1.63;;;;;;;11.28;100.00;101151.13;7390906;19;20456;-49
2022/11/02 00:06:40;;;;;;;10.40;2.00;;;;;;;11.33;100.00;101128.97;7386628;19;20858;-50
2022/11/02 00:09:10;;;;;;;8.23;2.00;;;;;;;11.33;100.00;101128.06;7389622;19;20993;-49
2022/11/02 00:11:42;;;;;;;13.37;1.90;;;;;;;11.32;100.00;101111.72;7388438;19;20978;-53
2022/11/02 00:14:12;;;;;;;11.50;2.70;;;;;;;11.25;100.00;101104.50;7389975;19;20386;-52
2022/11/02 00:16:42;;;;;;;16.70;2.63;;;;;;;11.30;100.00;101109.88;7387249;19;21022;-51
2022/11/02 00:19:11;;;;;;;12.47;2.13;;;;;;;11.21;100.00;101113.81;7389818;19;20461;-49
2022/11/02 00:21:42;;;;;;;10.47;1.80;;;;;;;11.15;100.00;101113.56;7387358;19;20433;-51
2022/11/02 00:24:12;;;;;;;13.60;2.40;;;;;;;11.17;100.00;101109.31;7391401;19;20423;-49
2022/11/02 00:26:45;;;;;;;7.70;1.90;;;;;;;11.16;100.00;101106.66;7390812;19;20441;-50
2022/11/02 00:29:14;;;;;;;7.03;1.60;;;;;;;11.21;100.00;101107.75;7392644;19;20778;-52
2022/11/02 00:31:44;;;;;;;7.83;1.43;;;;;;;11.18;100.00;101087.84;7390621;19;20456;-49
2022/11/02 00:34:13;;;;;;;14.57;1.97;;;;;;;11.15;100.00;101094.56;7392636;19;20408;-50
2022/11/02 00:36:43;;;;;;;6.47;1.43;;;;;;;11.18;100.00;101076.66;7387258;19;20413;-53
2022/11/02 00:39:13;;;;;;;20.40;6.43;;;;;;;11.18;100.00;101082.69;7387897;19;20950;-50
2022/11/02 00:41:44;;;;;;;11.53;1.97;;;;;;;11.19;100.00;101078.41;7387550;19;20413;-56
2022/11/02 00:44:14;;;;;;;12.50;4.00;;;;;;;11.16;100.00;101079.16;7390053;19;20413;-53
2022/11/02 00:46:43;;;;;;;9.73;2.97;;;;;;;11.13;100.00;101068.66;7390911;19;20454;-53
2022/11/02 00:49:13;;;;;;;9.23;2.43;;;;;;;11.17;100.00;101069.69;7392052;19;20432;-55
2022/11/02 00:51:43;;;;;;;10.33;2.10;;;;;;;11.18;100.00;101062.03;7387470;19;20433;-49
2022/11/02 00:54:12;;;;;;;10.97;2.20;;;;;;;11.20;100.00;101065.56;7388291;19;20781;-53
2022/11/02 00:56:44;;;;;;;13.83;2.57;;;;;;;11.17;100.00;101055.09;7385988;19;20435;-52
2022/11/02 00:59:14;;;;;;;10.47;1.80;;;;;;;11.12;100.00;101060.88;7387294;19;20421;-48
2022/11/02 01:01:46;;;;;;;8.07;1.37;;;;;;;11.13;100.00;101057.47;7386170;19;20443;-50
2022/11/02 01:04:16;;;;;;;12.67;2.77;;;;;;;11.15;100.00;101056.72;7389094;19;20388;-49
2022/11/02 01:06:46;;;;;;;13.00;2.13;;;;;;;11.08;100.00;101049.53;7385844;19;20440;-50
2022/11/02 01:09:16;;;;;;;11.00;2.03;;;;;;;11.05;100.00;101049.38;7388957;19;20497;-51
2022/11/02 01:11:48;;;;;;;13.97;2.40;;;;;;;11.06;100.00;101045.97;7387892;19;20457;-50
2022/11/02 01:14:18;;;;;;;9.60;1.90;;;;;;;11.02;100.00;101051.84;7392291;19;20547;-53
2022/11/02 01:16:47;;;;;;;19.33;4.80;;;;;;;11.11;100.00;101052.25;7385099;19;20436;-51
2022/11/02 01:19:17;;;;;;;27.57;6.77;;;;;;;11.12;100.00;101046.25;7386787;19;20426;-53
2022/11/02 01:21:46;;;;;;;17.90;5.17;;;;;;;11.16;100.00;101053.34;7385883;19;20413;-51
2022/11/02 01:24:16;;;;;;;20.30;6.53;;;;;;;11.14;100.00;101049.81;7389533;19;20509;-53
2022/11/02 01:26:48;;;;;;;12.93;3.00;;;;;;;11.11;100.00;101054.81;7387773;19;20450;-54
2022/11/02 01:29:17;;;;;;;19.60;4.17;;;;;;;11.11;100.00;101043.59;7390311;19;20427;-53
2022/11/02 01:31:47;;;;;;;17.40;3.27;;;;;;;11.12;100.00;101046.25;7388984;19;20452;-48
2022/11/02 01:34:17;;;;;;;8.50;2.10;;;;;;;11.10;100.00;101036.66;7398800;19;20393;-52
2022/11/02 01:36:47;;;;;;;25.73;5.70;;;;;;;11.09;100.00;101038.38;7393962;19;20437;-47
2022/11/02 01:39:17;;;;;;;17.83;3.87;;;;;;;11.09;100.00;101043.56;7397663;19;20429;-49
2022/11/02 01:41:53;;;;;;;16.77;3.40;;;;;;;11.04;100.00;101033.00;7392655;19;20796;-53
2022/11/02 01:44:29;;;;;;;13.67;2.40;;;;;;;11.01;100.00;101032.88;7397694;19;20424;-51
2022/11/02 01:47:02;;;;;;;18.33;2.50;;;;;;;11.00;100.00;101040.53;7397064;19;20439;-55
2022/11/02 01:49:34;;;;;;;11.23;2.13;;;;;;;10.94;100.00;101049.78;7394568;19;20449;-54
2022/11/02 01:52:08;;;;;;;19.67;4.23;;;;;;;10.97;100.00;101051.63;7394557;19;20738;-51
2022/11/02 01:54:42;;;;;;;13.27;2.60;;;;;;;10.96;100.00;101056.72;7395183;19;20397;-54
2022/11/02 01:57:17;;;;;;;12.07;2.57;;;;;;;10.94;100.00;101060.09;7396488;19;20416;-49
2022/11/02 01:59:50;;;;;;;8.63;2.43;;;;;;;10.96;100.00;101052.44;7391033;19;20444;-49
2022/11/02 02:02:22;;;;;;;14.63;3.27;;;;;;;10.94;100.00;101038.59;7394760;19;20420;-55
2022/11/02 02:04:56;;;;;;;16.60;5.33;;;;;;;10.98;100.00;101039.59;7391617;19;20783;-49
2022/11/02 02:07:26;;;;;;;20.27;4.17;;;;;;;11.03;100.00;101032.94;7394141;19;20413;-49
2022/11/02 02:09:56;;;;;;;9.13;2.17;;;;;;;11.08;100.00;101021.13;7390366;19;20420;-48
2022/11/02 02:12:29;;;;;;;15.33;2.53;;;;;;;11.05;100.00;101018.41;7398268;19;20484;-51
2022/11/02 02:14:58;;;;;;;8.80;2.00;;;;;;;11.05;100.00;101013.22;7392487;19;20399;-52
2022/11/02 02:17:36;;;;;;;11.77;3.40;;;;;;;11.14;100.00;101007.59;7396155;19;20728;-56
2022/11/02 02:20:10;;;;;;;7.10;1.57;;;;;;;11.12;100.00;101007.50;7389604;19;20411;-54
2022/11/02 02:22:53;;;;;;;14.87;3.37;;;;;;;11.13;100.00;100993.78;7394251;19;20377;-53
2022/11/02 02:25:45;;;;;;;9.27;2.97;;;;;;;11.16;100.00;100991.34;7392048;19;20401;-50
2022/11/02 02:28:21;;;;;;;7.90;1.90;;;;;;;11.17;100.00;100993.13;7395761;19;20405;-51
2022/11/02 02:30:53;;;;;;;7.40;2.57;;;;;;;11.19;100.00;100996.63;7391566;19;20432;-56
2022/11/02 02:33:27;;;;;;;12.10;2.50;;;;;;;11.26;100.00;100981.41;7393171;19;20397;-48
2022/11/02 02:36:00;;;;;;;13.37;2.77;;;;;;;11.26;100.00;100971.06;7389811;19;20915;-52
2022/11/02 02:38:38;;;;;;;11.33;2.07;;;;;;;11.24;100.00;100968.44;7393587;19;20419;-54
2022/11/02 02:41:12;;;;;;;12.80;2.20;;;;;;;11.25;100.00;100980.53;7391111;19;20409;-47
2022/11/02 02:43:47;;;;;;;15.00;4.27;;;;;;;11.25;100.00;100979.63;7393196;19;20437;-53
2022/11/02 02:46:20;;;;;;;18.07;5.43;;;;;;;11.24;100.00;100978.78;7389451;19;20421;-51
2022/11/02 02:48:50;;;;;;;10.10;2.10;;;;;;;11.24;100.00;100988.22;7392398;19;20439;-47
2022/11/02 02:51:23;;;;;;;9.87;3.47;;;;;;;11.22;100.00;101003.63;7390279;19;20444;-50
2022/11/02 02:53:56;;;;;;;16.80;2.50;;;;;;;11.15;100.00;101030.91;7392337;19;20395;-49
2022/11/02 02:56:27;;;;;;;15.27;2.37;;;;;;;11.06;100.00;101058.88;7386174;19;20447;-55
2022/11/02 02:59:02;;;;;;;16.53;3.17;;;;;;;11.06;100.00;101090.78;7397169;19;20431;-51
2022/11/02 03:01:32;;;;;;;9.47;3.53;;;;;;;11.13;100.00;101088.47;7390269;19;20415;-51
2022/11/02 03:04:02;;;;;;;8.80;1.93;;;;;;;10.90;100.00;101127.91;7393094;19;20424;-50
2022/11/02 03:06:33;;;;;;;19.87;2.23;;;;;;;10.78;100.00;101178.97;7389984;19;20451;-49
2022/11/02 03:09:07;;;;;;;10.00;2.10;;;;;;;10.66;100.00;101216.28;7391797;19;20999;-52
2022/11/02 03:11:41;;;;;;;15.40;2.83;;;;;;;10.67;100.00;101246.41;7387855;19;20439;-49
2022/11/02 03:14:23;;;;;;;8.83;1.90;;;;;;;10.75;100.00;101256.22;7392252;19;20448;-48
2022/11/02 03:17:07;;;;;;;11.63;2.73;;;;;;;10.79;100.00;101245.25;7393204;19;20436;-49
2022/11/02 03:19:42;;;;;;;8.93;2.13;;;;;;;10.85;100.00;101232.66;7391333;19;20439;-48
2022/11/02 03:22:18;;;;;;;9.70;2.50;;;;;;;10.94;100.00;101214.13;7391639;19;20383;-48
2022/11/02 03:24:52;;;;;;;10.30;1.93;;;;;;;10.88;100.00;101204.38;7390667;19;20513;-50
2022/11/02 03:27:26;;;;;;;14.13;2.70;;;;;;;10.96;100.00;101209.06;7394394;19;20753;-52
2022/11/02 03:30:01;;;;;;;10.13;2.13;;;;;;;10.90;100.00;101195.03;7389608;19;20493;-52
2022/11/02 03:32:37;;;;;;;10.37;2.20;;;;;;;10.99;100.00;101178.19;7390989;19;20389;-51
2022/11/02 03:35:12;;;;;;;17.07;1.90;;;;;;;11.02;100.00;101178.34;7389748;19;20431;-53
2022/11/02 03:37:44;;;;;;;12.43;2.17;;;;;;;11.04;100.00;101171.56;7391678;19;20409;-50
2022/11/02 03:40:17;;;;;;;9.70;2.30;;;;;;;11.02;100.00;101173.19;7387703;19;20438;-51
2022/11/02 03:42:48;;;;;;;8.17;1.50;;;;;;;10.99;100.00;101163.59;7392391;19;20400;-53
2022/11/02 03:45:21;;;;;;;8.60;2.10;;;;;;;11.00;100.00;101165.38;7386270;19;20425;-52
2022/11/02 03:47:52;;;;;;;14.43;2.30;;;;;;;10.97;100.00;101164.34;7387718;19;20411;-45
2022/11/02 03:50:26;;;;;;;38.50;4.00;;;;;;;10.98;100.00;101168.69;7385825;19;20466;-50
2022/11/02 03:52:59;;;;;;;13.10;1.97;;;;;;;10.99;100.00;101173.94;7390557;19;20401;-52
2022/11/02 03:55:32;;;;;;;12.20;1.80;;;;;;;11.03;100.00;101170.66;7385681;19;20450;-47
2022/11/02 03:58:02;;;;;;;10.77;2.90;;;;;;;11.03;100.00;101167.22;7390639;19;20811;-48
2022/11/02 04:00:36;;;;;;;12.60;2.10;;;;;;;11.05;100.00;101169.06;7386464;19;20408;-48
2022/11/02 04:03:08;;;;;;;16.10;1.83;;;;;;;11.02;100.00;101168.03;7389855;19;20394;-47
2022/11/02 04:05:38;;;;;;;7.70;1.90;;;;;;;11.01;100.00;101177.47;7386427;19;20421;-49
2022/11/02 04:16:17;;;;;;;12.60;2.20;;;;;;;10.98;100.00;101182.47;7387298;19;20407;-47
2022/11/02 04:21:35;;;;;;;15.13;1.83;;;;;;;11.01;100.00;101192.94;7387772;19;20420;-49
2022/11/02 04:26:46;;;;;;;5.70;1.70;;;;;;;11.08;100.00;101218.25;7390672;19;20468;-52
2022/11/02 04:29:15;;;;;;;10.53;3.00;;;;;;;11.08;100.00;101223.41;7392466;19;20437;-45
2022/11/02 04:31:47;;;;;;;11.17;2.77;;;;;;;11.07;100.00;101220.75;7388623;19;20439;-52
2022/11/02 04:34:14;;;;;;;10.13;1.73;;;;;;;11.06;100.00;101226.72;7389698;19;20410;-49
2022/11/02 04:36:44;;;;;;;11.53;4.10;;;;;;;11.05;100.00;101219.81;7385845;19;20403;-48
2022/11/02 04:39:10;;;;;;;11.00;2.07;;;;;;;11.02;100.00;101240.31;7389499;19;20465;-48
2022/11/02 04:41:43;;;;;;;12.50;2.20;;;;;;;11.03;100.00;101239.50;7388377;19;20825;-49
2022/11/02 04:44:13;;;;;;;12.43;2.00;;;;;;;11.00;100.00;101241.94;7389970;19;20434;-51
2022/11/02 04:46:44;;;;;;;8.63;1.70;;;;;;;10.98;100.00;101248.72;7387377;19;20437;-48
2022/11/02 04:49:16;;;;;;;7.57;2.10;;;;;;;10.89;100.00;101242.31;7388582;19;20786;-47
2022/11/02 04:51:45;;;;;;;8.77;2.00;;;;;;;10.90;100.00;101246.66;7386190;19;20436;-46
2022/11/02 04:54:18;;;;;;;4.07;1.40;;;;;;;10.88;100.00;101247.41;7389318;19;20887;-47
2022/11/02 04:56:47;;;;;;;9.73;1.60;;;;;;;10.87;100.00;101254.25;7386220;19;20965;-50
2022/11/02 04:59:17;;;;;;;13.17;2.30;;;;;;;10.86;100.00;101249.91;7390486;19;20432;-46
2022/11/02 05:01:46;;;;;;;15.60;2.40;;;;;;;10.87;100.00;101250.81;7388869;19;20439;-47
2022/11/02 05:04:18;;;;;;;6.43;1.87;;;;;;;10.84;100.00;101260.97;7390591;19;20390;-47
2022/11/02 05:06:47;;;;;;;12.83;1.70;;;;;;;10.79;100.00;101258.16;7389526;19;20464;-48
2022/11/02 05:09:17;;;;;;;10.37;1.83;;;;;;;10.79;100.00;101258.16;7398243;19;20442;-48
2022/11/02 05:11:46;;;;;;;15.53;3.07;;;;;;;10.76;100.00;101260.56;7396172;19;20547;-52
2022/11/02 05:14:16;;;;;;;10.87;1.80;;;;;;;10.74;100.00;101259.63;7401150;19;20393;-48
2022/11/02 05:16:45;;;;;;;12.13;1.97;;;;;;;10.73;100.00;101269.09;7392056;19;20419;-47
2022/11/02 05:19:17;;;;;;;10.17;2.30;;;;;;;10.67;100.00;101267.06;7395087;19;20451;-48
2022/11/02 05:21:46;;;;;;;9.70;2.30;;;;;;;10.67;100.00;101274.81;7396990;19;20482;-47
2022/11/02 05:24:16;;;;;;;13.00;2.33;;;;;;;10.75;100.00;101263.97;7400053;19;20937;-52
2022/11/02 05:26:45;;;;;;;12.77;1.60;;;;;;;10.79;100.00;101258.16;7396066;19;20556;-46
2022/11/02 05:29:22;;;;;;;10.83;1.60;;;;;;;10.75;100.00;101243.31;7394916;19;20479;-51
2022/11/02 05:31:52;;;;;;;11.20;2.30;;;;;;;10.69;100.00;101255.94;7391782;19;21013;-47
2022/11/02 05:34:24;;;;;;;9.20;2.67;;;;;;;10.66;100.00;101249.81;7395961;19;21015;-53
2022/11/02 05:36:53;;;;;;;6.83;1.37;;;;;;;10.70;100.00;101242.22;7395048;19;21338;-51
2022/11/02 05:39:22;;;;;;;8.77;1.73;;;;;;;10.71;100.00;101239.72;7394401;19;20436;-52
2022/11/02 05:41:52;;;;;;;13.20;2.70;;;;;;;10.69;100.00;101250.75;7392766;19;20435;-50
2022/11/02 05:44:21;;;;;;;10.50;2.47;;;;;;;10.66;100.00;101252.41;7396559;19;20403;-52
2022/11/02 05:46:51;;;;;;;10.23;2.03;;;;;;;10.64;100.00;101255.72;7392710;19;20432;-47
2022/11/02 05:49:20;;;;;;;14.23;2.80;;;;;;;10.62;100.00;101259.91;7394132;19;20421;-49
2022/11/02 05:51:52;;;;;;;13.33;2.60;;;;;;;10.59;100.00;101267.50;7390970;19;20432;-47
2022/11/02 05:54:21;;;;;;;8.30;2.00;;;;;;;10.56;100.00;101268.22;7394135;19;20403;-49
2022/11/02 05:56:51;;;;;;;9.83;1.77;;;;;;;10.51;100.00;101277.44;7392387;19;20412;-47
2022/11/02 05:59:20;;;;;;;8.90;1.90;;;;;;;10.47;100.00;101289.28;7393451;19;20423;-45
2022/11/02 06:01:50;;;;;;;9.33;2.17;;;;;;;10.46;100.00;101292.69;7393145;19;20422;-46
2022/11/02 06:04:19;;;;;;;8.70;2.37;;;;;;;10.39;100.00;101298.31;7394885;19;20376;-49
2022/11/02 06:06:51;;;;;;;11.00;2.03;;;;;;;10.40;100.00;101311.28;7391685;19;20431;-50
2022/11/02 06:09:21;;;;;;;16.23;3.13;;;;;;;10.44;100.00;101316.63;7392953;19;20963;-48
2022/11/02 06:11:50;;;;;;;11.33;2.10;;;;;;;10.45;100.00;101318.41;7391241;19;20466;-53
2022/11/02 06:14:19;;;;;;;9.60;2.43;;;;;;;10.53;100.00;101317.09;7398886;19;20435;-48
2022/11/02 06:16:49;;;;;;;10.40;2.13;;;;;;;10.55;100.00;101336.13;7394703;19;20414;-49
2022/11/02 06:19:18;;;;;;;11.10;2.00;;;;;;;10.56;100.00;101334.44;7392400;19;20428;-48
2022/11/02 06:21:48;;;;;;;16.63;1.90;;;;;;;10.53;100.00;101337.75;7391948;19;20446;-52
2022/11/02 06:24:20;;;;;;;10.90;2.07;;;;;;;10.62;100.00;101334.75;7394349;19;20889;-53
2022/11/02 06:26:49;;;;;;;6.60;2.33;;;;;;;10.71;100.00;101332.63;7390528;19;20419;-52
2022/11/02 06:29:19;;;;;;;10.57;2.40;;;;;;;10.78;100.00;101328.66;7392546;19;20423;-53
2022/11/02 06:31:48;;;;;;;10.90;2.20;;;;;;;10.80;100.00;101327.03;7390609;19;20423;-49
2022/11/02 06:34:17;;;;;;;6.90;1.50;;;;;;;10.77;100.00;101312.28;7394020;19;20400;-53
2022/11/02 06:36:47;;;;;;;13.60;3.00;;;;;;;10.75;100.00;101316.50;7391287;19;20405;-52
2022/11/02 06:39:16;;;;;;;9.43;2.40;;;;;;;10.85;100.00;101320.41;7392628;19;20436;-51
2022/11/02 06:41:48;;;;;;;10.97;1.67;;;;;;;10.82;100.00;101317.66;7391090;19;20434;-51
2022/11/02 06:44:17;;;;;;;11.00;2.10;;;;;;;10.79;100.00;101321.00;7393852;19;20463;-51
2022/11/02 06:46:47;;;;;;;5.53;1.40;;;;;;;10.77;100.00;101324.31;7388855;19;20417;-49
2022/11/02 06:49:16;;;;;;;6.53;1.67;;;;;;;10.73;100.00;101319.81;7392394;19;20784;-52
2022/11/02 06:51:46;;;;;;;10.27;2.20;;;;;;;10.65;100.00;101335.78;7390640;19;20423;-50
2022/11/02 06:54:15;;;;;;;12.60;2.03;;;;;;;10.61;100.00;101336.44;7393343;19;20412;-48
2022/11/02 06:56:47;;;;;;;11.50;2.13;;;;;;;10.64;100.00;101357.25;7390163;19;20438;-49
2022/11/02 06:59:17;;;;;;;12.50;2.30;;;;;;;10.59;100.00;101368.13;7392331;19;20446;-48
2022/11/02 07:01:51;;;;;;;18.90;2.43;;;;;;;10.57;100.00;101374.91;7390797;19;20932;-49
2022/11/02 07:04:20;;;;;;;14.77;2.10;;;;;;;10.51;100.00;101378.94;7391406;19;20376;-46
2022/11/02 07:06:50;;;;;;;10.30;1.93;;;;;;;10.56;100.00;101386.03;7389137;19;20395;-48
2022/11/02 07:09:19;;;;;;;15.57;1.80;;;;;;;10.55;100.00;101392.88;7391877;19;20460;-54
2022/11/02 07:11:51;;;;;;;14.80;3.07;;;;;;;10.57;100.00;101395.56;7390173;19;20416;-54
2022/11/02 07:14:21;;;;;;;9.97;2.30;;;;;;;10.61;100.00;101403.53;7393554;19;20755;-47
2022/11/02 07:16:50;;;;;;;11.10;1.80;;;;;;;10.65;100.00;101397.72;7389650;19;20473;-51
2022/11/02 07:19:19;;;;;;;13.40;2.00;;;;;;;10.64;100.00;101414.03;7395789;19;20431;-46
2022/11/02 07:21:49;;;;;;;7.53;2.20;;;;;;;10.65;100.00;101414.88;7388905;19;20407;-47
2022/11/02 07:24:18;;;;;;;12.13;2.27;;;;;;;10.70;100.00;101415.13;7392389;19;20421;-50
2022/11/02 07:26:52;;;;;;;8.30;1.83;;;;;;;10.71;100.00;101419.50;7391417;19;20788;-52
2022/11/02 07:29:21;;;;;;;7.83;1.40;;;;;;;10.75;100.00;101424.91;7391017;19;20447;-50
2022/11/02 07:31:51;;;;;;;8.30;1.90;;;;;;;10.85;100.00;101397.84;7387031;19;20443;-48
2022/11/02 07:34:20;;;;;;;14.53;1.97;;;;;;;10.84;100.00;101402.94;7392069;19;20401;-49
2022/11/02 07:36:49;;;;;;;11.53;2.07;;;;;;;10.85;100.00;101382.38;7387881;19;20442;-50
2022/11/02 07:39:19;;;;;;;6.47;1.43;;;;;;;10.83;100.00;101381.41;7390977;19;20446;-50
2022/11/02 07:41:48;;;;;;;7.83;1.80;;;;;;;10.87;100.00;101379.88;7388104;19;20791;-49
2022/11/02 07:44:23;;;;;;;5.00;1.30;;;;;;;10.81;100.00;101375.28;7391961;19;20400;-48
2022/11/02 07:46:52;;;;;;;12.80;2.07;;;;;;;10.79;100.00;101375.22;7388587;19;20803;-47
2022/11/02 07:49:21;;;;;;;6.40;1.70;;;;;;;10.78;100.00;101372.53;7390578;19;20794;-49
2022/11/02 07:51:51;;;;;;;17.13;2.63;;;;;;;10.78;100.00;101372.53;7389151;19;20434;-47
2022/11/02 07:54:20;;;;;;;20.50;2.60;;;;;;;10.77;100.00;101368.19;7389546;19;20413;-51
2022/11/02 07:56:50;;;;;;;12.77;1.93;;;;;;;10.78;100.00;101359.63;7386982;19;20451;-50
2022/11/02 07:59:19;;;;;;;16.23;1.90;;;;;;;10.78;100.00;101355.34;7389228;19;20438;-49
2022/11/02 08:01:51;;;;;;;10.10;1.80;;;;;;;10.78;100.00;101359.63;7389119;19;20930;-47
2022/11/02 08:04:20;;;;;;;6.33;1.60;;;;;;;10.77;100.00;101356.16;7391258;19;20982;-51
2022/11/02 08:07:10;;;;;;;8.27;2.10;;;;;;;10.76;100.00;101359.56;7390017;19;20428;-49
2022/11/02 08:09:39;;;;;;;8.20;1.80;;;;;;;10.79;100.00;101362.31;7388450;19;20424;-50
2022/11/02 08:12:09;;;;;;;12.07;2.47;;;;;;;10.87;100.00;101362.66;7390654;19;20392;-49
2022/11/02 08:14:38;;;;;;;7.13;1.50;;;;;;;10.88;100.00;101348.09;7385615;19;20395;-50
2022/11/02 08:17:10;;;;;;;12.50;2.10;;;;;;;10.92;100.00;101345.72;7389841;19;20390;-48
2022/11/02 08:19:39;;;;;;;12.80;1.83;;;;;;;10.94;100.00;101333.75;7387567;19;20798;-50
2022/11/02 08:22:09;;;;;;;11.90;1.90;;;;;;;10.98;100.00;101333.94;7392943;19;20444;-47
2022/11/02 08:24:38;;;;;;;8.33;2.10;;;;;;;10.99;100.00;101318.53;7392427;19;20411;-51
2022/11/02 08:27:08;;;;;;;10.67;2.17;;;;;;;11.00;100.00;101325.44;7389439;19;20385;-54
2022/11/02 08:29:37;;;;;;;8.27;1.20;;;;;;;11.03;100.00;101312.69;7387402;19;20455;-48
2022/11/02 08:32:09;;;;;;;6.70;1.40;;;;;;;11.05;100.00;101313.66;7392794;19;20401;-53
2022/11/02 08:34:39;;;;;;;11.37;2.50;;;;;;;11.06;100.00;101310.25;7386047;19;20389;-53
2022/11/02 08:37:09;;;;;;;4.93;1.53;;;;;;;11.11;100.00;101300.16;7387646;19;20944;-52
2022/11/02 08:39:38;;;;;;;8.73;2.10;;;;;;;11.18;100.00;101299.63;7390157;19;20452;-50
2022/11/02 08:42:08;;;;;;;19.33;6.43;;;;;;;11.24;100.00;101304.22;7392989;19;21027;-50
2022/11/02 08:44:38;;;;;;;10.43;3.00;;;;;;;11.27;100.00;101300.91;7391304;19;20398;-47
2022/11/02 08:47:14;;;;;;;13.97;4.10;;;;;;;11.38;100.00;101284.19;7388182;19;20402;-47
2022/11/02 08:49:45;;;;;;;7.23;1.60;;;;;;;11.52;100.00;101289.09;7391258;19;20797;-49
2022/11/02 08:52:15;;;;;;;15.93;2.53;;;;;;;11.50;100.00;101254.56;7389185;19;20413;-50
2022/11/02 08:54:45;;;;;;;11.00;2.50;;;;;;;11.49;100.00;101222.69;7389030;19;20751;-51
2022/11/02 08:57:14;;;;;;;10.37;3.20;;;;;;;11.61;100.00;101217.19;7389240;19;20394;-50
2022/11/02 08:59:44;;;;;;;7.57;2.10;;;;;;;11.63;100.00;101210.38;7386050;19;20433;-49
2022/11/02 09:02:16;;;;;;;11.23;1.90;;;;;;;11.59;100.00;101162.84;7389515;19;20402;-50
2022/11/02 09:04:45;;;;;;;10.50;1.80;;;;;;;11.55;100.00;101154.88;7385826;19;20390;-52
2022/11/02 09:07:15;;;;;;;15.03;2.63;;;;;;;11.55;100.00;101162.63;7393253;19;20522;-47
2022/11/02 09:09:44;;;;;;;10.40;2.30;;;;;;;11.53;100.00;101135.84;7386202;19;20434;-46
2022/11/02 09:12:14;;;;;;;8.77;1.87;;;;;;;11.57;100.00;101137.72;7393072;19;20417;-50
2022/11/02 09:14:43;;;;;;;5.17;1.80;;;;;;;11.56;100.00;101131.69;7388998;19;20398;-47
2022/11/02 09:17:15;;;;;;;11.97;2.83;;;;;;;11.59;100.00;101138.72;7388944;19;20767;-51
2022/11/02 09:19:45;;;;;;;10.67;2.90;;;;;;;11.59;100.00;101136.13;7385834;19;20991;-51
2022/11/02 09:22:14;;;;;;;13.50;3.00;;;;;;;11.56;100.00;101134.28;7387717;19;20416;-50
2022/11/02 09:24:44;;;;;;;11.23;2.57;;;;;;;11.54;100.00;101138.47;7386887;19;20385;-53
2022/11/02 09:27:13;;;;;;;17.37;5.77;;;;;;;11.60;100.00;101136.16;7388734;19;20739;-54
2022/11/02 09:29:43;;;;;;;7.13;1.73;;;;;;;11.56;100.00;101128.22;7388059;19;20428;-54
2022/11/02 09:32:12;;;;;;;10.43;3.70;;;;;;;11.57;100.00;101132.56;7388460;19;20385;-51
2022/11/02 09:34:46;;;;;;;15.77;3.40;;;;;;;11.60;100.00;101154.25;7384340;19;20385;-52
2022/11/02 09:37:15;;;;;;;18.07;5.40;;;;;;;11.59;100.00;101137.00;7388418;19;20791;-52
2022/11/02 09:39:45;;;;;;;8.83;1.90;;;;;;;11.55;100.00;101140.28;7385678;19;20457;-53
2022/11/02 09:42:19;;;;;;;5.87;1.57;;;;;;;11.40;100.00;101171.47;7387377;19;20397;-53
2022/11/02 09:44:51;;;;;;;15.90;3.13;;;;;;;11.21;100.00;101240.38;7386850;19;20449;-51
2022/11/02 09:47:21;;;;;;;6.57;1.60;;;;;;;11.24;100.00;101280.97;7387527;19;20401;-53
2022/11/02 09:50:17;;;;;;;8.03;2.87;;;;;;;11.33;100.00;101246.91;7384596;19;20942;-50
2022/11/02 09:52:47;;;;;;;11.63;2.07;;;;;;;11.34;100.00;101233.22;7388247;19;20405;-52
2022/11/02 09:55:20;;;;;;;15.40;2.80;;;;;;;11.33;100.00;101227.13;7389614;19;20428;-54
2022/11/02 09:57:52;;;;;;;10.20;2.53;;;;;;;11.31;100.00;101248.53;7393981;19;20425;-51
2022/11/02 10:00:21;;;;;;;8.70;2.33;;;;;;;11.30;100.00;101257.13;7391577;19;20410;-48
2022/11/02 10:02:57;;;;;;;27.87;8.33;;;;;;;11.42;100.00;101244.75;7395244;19;20411;-50
2022/11/02 10:05:36;;;;;;;10.90;2.10;;;;;;;11.40;100.00;101217.97;7390455;19;20928;-50
2022/11/02 10:08:22;;;;;;;9.00;2.20;;;;;;;11.42;100.00;101210.28;7394997;19;20420;-50
2022/11/02 10:10:59;;;;;;;6.53;1.87;;;;;;;11.42;100.00;101220.63;7392302;19;20421;-53
2022/11/02 10:13:40;;;;;;;7.50;1.90;;;;;;;11.42;100.00;101211.19;7398210;19;20398;-49
2022/11/02 10:16:13;;;;;;;15.00;2.93;;;;;;;11.39;100.00;101226.53;7391060;19;20429;-49
2022/11/02 10:18:48;;;;;;;8.33;1.80;;;;;;;11.34;100.00;101243.53;7394386;19;20389;-50
2022/11/02 10:21:22;;;;;;;22.43;6.43;;;;;;;11.33;100.00;101258.13;7392034;19;20416;-49
2022/11/02 10:23:54;;;;;;;6.83;1.97;;;;;;;11.22;100.00;101264.50;7393717;19;21040;-46
2022/11/02 10:26:25;;;;;;;11.50;2.80;;;;;;;11.15;100.00;101293.44;7391070;19;20408;-46
2022/11/02 10:28:59;;;;;;;10.07;1.77;;;;;;;11.05;100.00;101334.31;7393613;19;20406;-45
2022/11/02 10:31:32;;;;;;;12.40;1.30;;;;;;;10.88;100.00;101337.75;7390985;19;20421;-46
2022/11/02 10:34:15;;;;;;;10.50;1.33;;;;;;;10.82;100.00;101348.63;7392558;19;20720;-50
2022/11/02 10:36:55;;;;;;;5.57;1.60;;;;;;;10.74;100.00;101366.34;7391110;19;20808;-49
2022/11/02 10:39:30;;;;;;;7.80;1.70;;;;;;;10.96;100.00;101388.06;7393052;19;20411;-48
2022/11/02 10:42:19;;;;;;;7.80;1.30;;;;;;;11.23;100.00;101397.13;7392047;19;20419;-49
2022/11/02 10:45:01;;;;;;;4.50;1.33;;;;;;;11.31;100.00;101380.28;7391789;19;20424;-48
2022/11/02 10:47:32;;;;;;;4.87;1.40;;;;;;;11.45;100.00;101366.34;7394129;19;20405;-49
2022/11/02 10:50:23;;;;;;;9.97;1.47;;;;;;;11.26;100.00;101355.94;7389323;19;20408;-48
2022/11/02 10:52:55;;;;;;;3.33;1.00;;;;;;;11.07;100.00;101357.59;7394488;19;20409;-52
2022/11/02 10:55:50;;;;;;;8.37;1.57;;;;;;;11.23;100.00;101387.66;7391582;19;20514;-50
2022/11/02 10:58:21;;;;;;;13.00;2.00;;;;;;;11.15;100.00;101382.13;7397193;19;20399;-46
2022/11/02 11:00:52;;;;;;;11.93;1.60;;;;;;;11.12;100.00;101383.69;7390147;19;20433;-50
2022/11/02 11:03:21;;;;;;;8.27;1.30;;;;;;;11.07;100.00;101406.66;7394743;19;20742;-52
2022/11/02 11:06:00;;;;;;;22.50;8.10;;;;;;;11.17;100.00;101424.41;7390326;19;20403;-49
2022/11/02 11:08:37;;;;;;;10.20;3.40;;;;;;;11.42;100.00;101420.47;7392655;19;20406;-52
2022/11/02 11:11:16;;;;;;;7.50;2.20;;;;;;;11.56;100.00;101420.25;7391904;19;20438;-48
2022/11/02 11:13:47;;;;;;;9.77;2.53;;;;;;;11.68;100.00;101410.50;7393144;19;20376;-48
2022/11/02 11:16:40;;;;;;;10.40;1.67;;;;;;;11.75;100.00;101398.75;7389674;19;20416;-49
2022/11/02 11:19:20;;;;;;;8.87;2.10;;;;;;;11.83;100.00;101391.34;7391212;19;20444;-49
2022/11/02 11:22:25;;;;;;;10.97;2.20;;;;;;;11.59;100.00;101329.94;7391956;19;20499;-46
2022/11/02 11:25:23;;;;;;;11.43;1.63;;;;;;;11.68;100.00;101317.44;7389660;19;20975;-46
2022/11/02 11:27:58;;;;;;;9.83;1.67;;;;;;;12.05;100.00;101296.69;7390845;19;20486;-47
2022/11/02 11:30:29;;;;;;;13.90;1.50;;;;;;;12.00;100.00;101239.56;7392696;19;20985;-46
2022/11/02 11:33:21;;;;;;;5.60;1.60;;;;;;;12.33;100.00;101220.25;7390592;19;20394;-47
2022/11/02 11:35:52;;;;;;;7.10;1.30;;;;;;;12.37;100.00;101167.84;7390650;19;20458;-46
2022/11/02 11:38:25;;;;;;;4.63;0.60;;;;;;;11.93;100.00;101090.13;7395881;19;20394;-48
2022/11/02 11:40:59;;;;;;;5.23;1.17;;;;;;;11.80;100.00;101093.91;7391022;19;20471;-46
2022/11/02 11:43:33;;;;;;;13.53;2.47;;;;;;;11.95;100.00;101122.97;7396166;19;20907;-46
2022/11/02 11:46:05;;;;;;;3.23;1.00;;;;;;;11.88;100.00;101108.03;7388725;19;20443;-51
2022/11/02 11:48:37;;;;;;;5.13;0.90;;;;;;;11.78;100.00;101116.25;7391818;19;20456;-47